Time;durP1;ratioP1;P1;durP2;ratioP2;P2;SDS_P1;SDS_P2;PMS_P1;PMS_P2;Temp;Humidity;BMP_temperature;BMP_pressure;BME280_temperature;BME280_humidity;BME280_pressure;Samples;Min_cycle;Max_cycle;Signal;HPM_P1;HPM_P2
2022/04/10 00:00:44;;;;;;;8.63;3.70;;;;;;;;;;4997413;28;20600;-52
2022/04/10 00:03:10;;;;;;;7.93;3.80;;;;;;;;;;5003071;28;21052;-52
2022/04/10 00:05:36;;;;;;;7.33;3.90;;;;;;;;;;5007219;28;20197;-52
2022/04/10 00:08:02;;;;;;;8.70;4.20;;;;;;;;;;5005020;28;20226;-53
2022/04/10 00:10:28;;;;;;;7.07;4.03;;;;;;;;;;4999375;28;20200;-53
2022/04/10 00:12:54;;;;;;;10.13;4.13;;;;;;;;;;5000911;28;20197;-52
2022/04/10 00:15:21;;;;;;;6.63;4.47;;;;;;;;;;5005092;28;20231;-52
2022/04/10 00:17:46;;;;;;;5.90;3.83;;;;;;;;;;4997483;28;20655;-53
2022/04/10 00:20:12;;;;;;;6.93;3.93;;;;;;;;;;4997391;28;20280;-53
2022/04/10 00:22:42;;;;;;;11.33;4.30;;;;;;;;;;5001160;28;20273;-53
2022/04/10 00:25:09;;;;;;;8.13;4.37;;;;;;;;;;5005096;28;20520;-53
2022/04/10 00:27:35;;;;;;;6.07;4.10;;;;;;;;;;5003862;28;20412;-53
2022/04/10 00:30:00;;;;;;;8.47;4.20;;;;;;;;;;5003417;28;20254;-53
2022/04/10 00:32:27;;;;;;;8.87;4.47;;;;;;;;;;5002719;28;20193;-53
2022/04/10 00:34:53;;;;;;;6.07;3.80;;;;;;;;;;4989732;28;20212;-53
2022/04/10 00:37:19;;;;;;;10.20;4.33;;;;;;;;;;4993644;28;20651;-52
2022/04/10 00:39:45;;;;;;;9.77;4.43;;;;;;;;;;4996866;28;20189;-53
2022/04/10 00:42:11;;;;;;;8.33;4.20;;;;;;;;;;5006199;28;20275;-53
2022/04/10 00:44:37;;;;;;;8.87;4.73;;;;;;;;;;5002941;28;20267;-53
2022/04/10 00:47:03;;;;;;;7.87;3.70;;;;;;;;;;5001961;28;20205;-52
2022/04/10 00:49:29;;;;;;;7.17;3.73;;;;;;;;;;4992458;28;20197;-52
2022/04/10 00:51:56;;;;;;;10.23;4.73;;;;;;;;;;4996235;28;20563;-52
2022/04/10 00:54:25;;;;;;;7.57;3.77;;;;;;;;;;5000085;28;20344;-52
2022/04/10 00:56:51;;;;;;;9.83;4.00;;;;;;;;;;5005505;28;21811;-52
2022/04/10 00:59:17;;;;;;;10.83;3.43;;;;;;;;;;4989798;28;20220;-53
2022/04/10 01:01:44;;;;;;;10.67;4.13;;;;;;;;;;5006931;28;20186;-53
2022/04/10 01:04:11;;;;;;;12.57;4.03;;;;;;;;;;5005915;28;20224;-52
2022/04/10 01:06:36;;;;;;;9.43;3.97;;;;;;;;;;5009429;28;20208;-53
2022/04/10 01:09:05;;;;;;;4.57;3.37;;;;;;;;;;5000685;28;20223;-52
2022/04/10 01:11:32;;;;;;;5.57;3.47;;;;;;;;;;5002721;28;20216;-52
2022/04/10 01:13:58;;;;;;;7.53;3.57;;;;;;;;;;5011825;28;21774;-52
2022/04/10 01:16:24;;;;;;;7.87;4.10;;;;;;;;;;5010906;28;20557;-52
2022/04/10 01:18:50;;;;;;;8.27;3.60;;;;;;;;;;4998929;28;20686;-51
2022/04/10 01:21:23;;;;;;;9.53;3.30;;;;;;;;;;5000103;28;20182;-53
2022/04/10 01:23:49;;;;;;;7.50;3.23;;;;;;;;;;4997054;28;20197;-52
2022/04/10 01:26:15;;;;;;;8.93;3.37;;;;;;;;;;5001048;28;20196;-53
2022/04/10 01:28:59;;;;;;;9.90;3.80;;;;;;;;;;4994341;28;20233;-52
2022/04/10 01:31:26;;;;;;;5.77;3.60;;;;;;;;;;4997805;28;20546;-52
2022/04/10 01:33:54;;;;;;;6.70;3.73;;;;;;;;;;5002489;28;20575;-52
2022/04/10 01:36:20;;;;;;;8.33;3.53;;;;;;;;;;5005677;28;20217;-52
2022/04/10 01:38:47;;;;;;;9.97;3.67;;;;;;;;;;5003021;28;20209;-53
2022/04/10 01:41:13;;;;;;;6.57;3.73;;;;;;;;;;5001519;28;20664;-53
2022/04/10 01:43:46;;;;;;;10.43;3.83;;;;;;;;;;4996546;28;20398;-52
2022/04/10 01:46:12;;;;;;;7.00;4.17;;;;;;;;;;5001258;28;20190;-52
2022/04/10 01:48:38;;;;;;;8.27;3.77;;;;;;;;;;5001200;28;20193;-52
2022/04/10 01:51:04;;;;;;;8.57;3.60;;;;;;;;;;4998906;28;20235;-53
2022/04/10 01:53:30;;;;;;;6.53;3.50;;;;;;;;;;5005598;28;20197;-52
2022/04/10 01:55:56;;;;;;;5.60;3.40;;;;;;;;;;5004392;28;20217;-52
2022/04/10 01:58:22;;;;;;;7.10;3.30;;;;;;;;;;4997064;28;20300;-52
2022/04/10 02:00:48;;;;;;;6.47;3.37;;;;;;;;;;4999800;28;20205;-53
2022/04/10 02:03:14;;;;;;;9.27;3.43;;;;;;;;;;5003999;28;20586;-52
2022/04/10 02:05:40;;;;;;;5.27;3.17;;;;;;;;;;5008415;28;20189;-52
2022/04/10 02:08:06;;;;;;;7.30;3.47;;;;;;;;;;5001721;28;20657;-52
2022/04/10 02:10:32;;;;;;;8.30;3.23;;;;;;;;;;4997063;28;20201;-52
2022/04/10 02:12:58;;;;;;;6.43;3.40;;;;;;;;;;5006073;28;20189;-52
2022/04/10 02:15:24;;;;;;;5.87;3.63;;;;;;;;;;5004052;28;20214;-53
2022/04/10 02:17:50;;;;;;;9.07;3.53;;;;;;;;;;5003777;28;20193;-52
2022/04/10 02:20:16;;;;;;;9.17;3.70;;;;;;;;;;4995956;28;20264;-52
2022/04/10 02:22:42;;;;;;;10.27;3.83;;;;;;;;;;4994793;28;20255;-52
2022/04/10 02:25:09;;;;;;;7.07;3.63;;;;;;;;;;4994963;28;20191;-53
2022/04/10 02:27:34;;;;;;;5.63;3.70;;;;;;;;;;4997754;28;20194;-52
2022/04/10 02:30:00;;;;;;;6.63;3.57;;;;;;;;;;5000161;28;20607;-52
2022/04/10 02:32:29;;;;;;;4.47;3.13;;;;;;;;;;5009030;28;20531;-52
2022/04/10 02:34:55;;;;;;;5.87;3.70;;;;;;;;;;5007290;28;20245;-52
2022/04/10 02:37:21;;;;;;;7.27;3.67;;;;;;;;;;4999097;28;20284;-52
2022/04/10 02:39:47;;;;;;;4.60;3.20;;;;;;;;;;4992940;28;20220;-52
2022/04/10 02:42:13;;;;;;;6.33;3.33;;;;;;;;;;4993686;28;20192;-52
2022/04/10 02:44:38;;;;;;;7.57;3.60;;;;;;;;;;4998910;28;20232;-52
2022/04/10 02:47:05;;;;;;;6.87;3.60;;;;;;;;;;4999141;28;20201;-52
2022/04/10 02:49:31;;;;;;;8.70;4.10;;;;;;;;;;5009581;28;20196;-52
2022/04/10 02:51:56;;;;;;;9.93;3.57;;;;;;;;;;5012640;28;20243;-52
2022/04/10 02:54:22;;;;;;;8.07;4.00;;;;;;;;;;5002534;28;20208;-53
2022/04/10 02:56:48;;;;;;;6.97;3.87;;;;;;;;;;4999106;28;20197;-52
2022/04/10 02:59:14;;;;;;;6.50;3.63;;;;;;;;;;4999815;28;20272;-52
2022/04/10 03:01:40;;;;;;;5.90;3.90;;;;;;;;;;4992700;28;21042;-52
2022/04/10 03:04:06;;;;;;;6.07;3.70;;;;;;;;;;5006870;28;20205;-53
2022/04/10 03:06:32;;;;;;;8.47;4.10;;;;;;;;;;5006920;28;20278;-53
2022/04/10 03:08:58;;;;;;;8.43;3.87;;;;;;;;;;5001427;28;20200;-53
2022/04/10 03:11:25;;;;;;;5.83;3.73;;;;;;;;;;5004050;28;20189;-52
2022/04/10 03:13:51;;;;;;;12.47;4.07;;;;;;;;;;5004010;28;20198;-52
2022/04/10 03:16:17;;;;;;;5.57;3.60;;;;;;;;;;4998887;28;20186;-53
2022/04/10 03:18:43;;;;;;;7.20;3.93;;;;;;;;;;4996331;28;20211;-53
2022/04/10 03:21:09;;;;;;;6.87;3.73;;;;;;;;;;4999079;28;20856;-52
2022/04/10 03:23:35;;;;;;;8.73;3.80;;;;;;;;;;5001634;28;20196;-52
2022/04/10 03:26:01;;;;;;;9.00;4.00;;;;;;;;;;4994476;28;21298;-53
2022/04/10 03:28:27;;;;;;;8.20;4.07;;;;;;;;;;4987269;28;21563;-53
2022/04/10 03:30:53;;;;;;;8.87;4.00;;;;;;;;;;4998773;28;20185;-52
2022/04/10 03:33:19;;;;;;;7.43;3.90;;;;;;;;;;4991234;28;20205;-53
2022/04/10 03:35:45;;;;;;;6.47;4.50;;;;;;;;;;4997271;28;20621;-52
2022/04/10 03:38:11;;;;;;;6.67;4.00;;;;;;;;;;4987955;28;20204;-52
2022/04/10 03:40:37;;;;;;;6.73;3.73;;;;;;;;;;4990633;28;20605;-53
2022/04/10 03:43:03;;;;;;;8.17;4.30;;;;;;;;;;5001068;28;20797;-52
2022/04/10 03:45:29;;;;;;;7.90;4.37;;;;;;;;;;5003048;28;20659;-53
2022/04/10 03:47:55;;;;;;;9.83;4.07;;;;;;;;;;5003349;28;20787;-53
2022/04/10 03:50:21;;;;;;;8.63;4.17;;;;;;;;;;4988628;28;20557;-52
2022/04/10 03:52:47;;;;;;;6.50;3.80;;;;;;;;;;4997546;28;20201;-53
2022/04/10 03:55:13;;;;;;;6.63;4.50;;;;;;;;;;5002088;28;20627;-52
2022/04/10 03:57:39;;;;;;;6.47;3.73;;;;;;;;;;5000245;28;20716;-53
2022/04/10 04:00:05;;;;;;;6.93;4.00;;;;;;;;;;5006539;28;20731;-52
2022/04/10 04:02:31;;;;;;;7.70;4.47;;;;;;;;;;5005264;28;20193;-53
2022/04/10 04:04:57;;;;;;;6.67;4.57;;;;;;;;;;5006882;28;20196;-53
2022/04/10 04:07:23;;;;;;;5.23;4.37;;;;;;;;;;5006344;28;20201;-53
2022/04/10 04:09:50;;;;;;;8.20;4.30;;;;;;;;;;5000681;28;20661;-53
2022/04/10 04:12:16;;;;;;;6.20;3.90;;;;;;;;;;5007413;28;20426;-52
2022/04/10 04:14:41;;;;;;;8.93;4.63;;;;;;;;;;5008017;28;20214;-53
2022/04/10 04:17:08;;;;;;;8.40;4.30;;;;;;;;;;5005341;28;20204;-53
2022/04/10 04:19:34;;;;;;;8.13;4.60;;;;;;;;;;4996823;28;20272;-53
2022/04/10 04:22:00;;;;;;;5.57;4.07;;;;;;;;;;5002368;28;20240;-52
2022/04/10 04:24:26;;;;;;;5.60;4.27;;;;;;;;;;4996437;28;20741;-53
2022/04/10 04:26:52;;;;;;;11.70;4.83;;;;;;;;;;4994116;28;20190;-52
2022/04/10 04:29:17;;;;;;;6.67;4.63;;;;;;;;;;4998485;28;20237;-52
2022/04/10 04:31:43;;;;;;;7.53;4.17;;;;;;;;;;4999493;28;20323;-52
2022/04/10 04:34:11;;;;;;;8.70;4.37;;;;;;;;;;4993428;28;20220;-52
2022/04/10 04:36:38;;;;;;;8.67;4.30;;;;;;;;;;4998414;28;20551;-51
2022/04/10 04:39:04;;;;;;;9.30;4.57;;;;;;;;;;4993939;28;20197;-52
2022/04/10 04:41:30;;;;;;;6.17;4.80;;;;;;;;;;4993349;28;20747;-52
2022/04/10 04:43:56;;;;;;;6.43;4.20;;;;;;;;;;4993822;28;20216;-52
2022/04/10 04:46:22;;;;;;;6.93;4.20;;;;;;;;;;4996214;28;20574;-52
2022/04/10 04:48:48;;;;;;;7.60;5.07;;;;;;;;;;4994585;28;20606;-52
2022/04/10 04:51:16;;;;;;;8.70;4.87;;;;;;;;;;4995596;28;20233;-52
2022/04/10 04:53:42;;;;;;;6.33;3.87;;;;;;;;;;5004914;28;20182;-52
2022/04/10 04:56:08;;;;;;;7.53;4.53;;;;;;;;;;5001914;28;20224;-53
2022/04/10 04:58:34;;;;;;;6.50;4.10;;;;;;;;;;4998583;28;20194;-53
2022/04/10 05:01:00;;;;;;;8.10;4.67;;;;;;;;;;4997711;28;20541;-52
2022/04/10 05:03:26;;;;;;;6.80;4.50;;;;;;;;;;4991678;28;20200;-52
2022/04/10 05:05:52;;;;;;;7.40;4.73;;;;;;;;;;5005763;28;20569;-52
2022/04/10 05:08:19;;;;;;;8.20;4.80;;;;;;;;;;4989683;28;20213;-53
2022/04/10 05:10:46;;;;;;;7.00;4.80;;;;;;;;;;5004600;28;20211;-52
2022/04/10 05:13:12;;;;;;;8.07;5.07;;;;;;;;;;5003124;28;20197;-53
2022/04/10 05:15:38;;;;;;;8.73;5.00;;;;;;;;;;4996625;28;20236;-52
2022/04/10 05:18:04;;;;;;;7.87;4.77;;;;;;;;;;5003105;28;20480;-52
2022/04/10 05:20:30;;;;;;;5.20;4.70;;;;;;;;;;5000728;28;20205;-52
2022/04/10 05:22:56;;;;;;;7.63;5.20;;;;;;;;;;5004488;28;20193;-52
2022/04/10 05:25:22;;;;;;;9.53;4.87;;;;;;;;;;5010117;28;20189;-52
2022/04/10 05:27:48;;;;;;;8.77;5.30;;;;;;;;;;5002083;28;21353;-53
2022/04/10 05:30:14;;;;;;;7.17;5.00;;;;;;;;;;5005459;28;20197;-53
2022/04/10 05:32:42;;;;;;;7.00;4.90;;;;;;;;;;5005463;28;20192;-53
2022/04/10 05:35:09;;;;;;;7.50;5.20;;;;;;;;;;5004927;28;20324;-52
2022/04/10 05:37:35;;;;;;;8.57;5.43;;;;;;;;;;4994492;28;20278;-53
2022/04/10 05:40:02;;;;;;;8.13;5.57;;;;;;;;;;4987678;28;22117;-52
2022/04/10 05:42:28;;;;;;;8.37;5.20;;;;;;;;;;4988500;28;20193;-52
2022/04/10 05:45:00;;;;;;;7.33;5.33;;;;;;;;;;4986840;28;20625;-53
2022/04/10 05:47:26;;;;;;;8.10;4.97;;;;;;;;;;4992744;28;20189;-52
2022/04/10 05:49:52;;;;;;;11.80;5.13;;;;;;;;;;4997082;28;20193;-53
2022/04/10 05:52:18;;;;;;;6.67;5.07;;;;;;;;;;4986620;28;20203;-52
2022/04/10 05:54:44;;;;;;;7.00;5.07;;;;;;;;;;4988682;28;20338;-52
2022/04/10 05:57:10;;;;;;;7.43;5.60;;;;;;;;;;4989946;28;20220;-53
2022/04/10 05:59:36;;;;;;;9.67;5.37;;;;;;;;;;4990785;28;20217;-52
2022/04/10 06:02:02;;;;;;;9.60;5.37;;;;;;;;;;5001360;28;20235;-52
2022/04/10 06:04:28;;;;;;;6.50;4.97;;;;;;;;;;4997893;28;20197;-53
2022/04/10 06:06:54;;;;;;;9.97;5.30;;;;;;;;;;4996528;28;20209;-52
2022/04/10 06:09:20;;;;;;;7.13;5.40;;;;;;;;;;4995867;28;20288;-52
2022/04/10 06:11:45;;;;;;;8.37;5.13;;;;;;;;;;4998172;28;20670;-53
2022/04/10 06:14:11;;;;;;;6.23;5.30;;;;;;;;;;4999086;28;20213;-53
2022/04/10 06:16:37;;;;;;;8.20;5.50;;;;;;;;;;4991974;28;20188;-53
2022/04/10 06:19:03;;;;;;;6.93;4.90;;;;;;;;;;4992031;28;20372;-52
2022/04/10 06:21:29;;;;;;;7.03;5.23;;;;;;;;;;4996548;28;20610;-53
2022/04/10 06:23:55;;;;;;;8.33;5.43;;;;;;;;;;4998317;28;20224;-53
2022/04/10 06:26:21;;;;;;;6.40;5.43;;;;;;;;;;5001770;28;20316;-52
2022/04/10 06:28:47;;;;;;;9.57;5.73;;;;;;;;;;4999535;28;20413;-52
2022/04/10 06:31:13;;;;;;;8.00;5.33;;;;;;;;;;4996073;28;20312;-53
2022/04/10 06:33:39;;;;;;;7.60;4.93;;;;;;;;;;4994945;28;20579;-53
2022/04/10 06:36:05;;;;;;;6.77;5.17;;;;;;;;;;5000589;28;20224;-52
2022/04/10 06:38:31;;;;;;;6.53;4.53;;;;;;;;;;4994522;28;20193;-53
2022/04/10 06:41:00;;;;;;;7.67;5.30;;;;;;;;;;5001048;28;20194;-52
2022/04/10 06:43:26;;;;;;;8.40;5.30;;;;;;;;;;4999059;28;20553;-52
2022/04/10 06:45:52;;;;;;;7.07;5.30;;;;;;;;;;5000555;28;20197;-52
2022/04/10 06:48:18;;;;;;;5.87;5.27;;;;;;;;;;5000111;28;20220;-52
2022/04/10 06:50:44;;;;;;;7.17;5.90;;;;;;;;;;4988656;28;20197;-53
2022/04/10 06:53:10;;;;;;;7.87;5.43;;;;;;;;;;4988795;28;20203;-53
2022/04/10 06:55:36;;;;;;;7.03;5.40;;;;;;;;;;4996604;28;20663;-52
2022/04/10 06:58:02;;;;;;;6.97;5.40;;;;;;;;;;4989405;28;20184;-52
2022/04/10 07:00:28;;;;;;;9.17;5.50;;;;;;;;;;4992022;28;20192;-52
2022/04/10 07:02:54;;;;;;;9.10;6.27;;;;;;;;;;4991685;28;20284;-53
2022/04/10 07:05:20;;;;;;;9.23;5.90;;;;;;;;;;4998431;28;20197;-53
2022/04/10 07:07:46;;;;;;;6.67;5.30;;;;;;;;;;4995491;28;20623;-52
2022/04/10 07:10:12;;;;;;;8.37;6.13;;;;;;;;;;4998954;28;20352;-52
2022/04/10 07:12:37;;;;;;;7.17;5.97;;;;;;;;;;4993607;28;20888;-52
2022/04/10 07:15:04;;;;;;;7.77;6.10;;;;;;;;;;4990223;28;20688;-52
2022/04/10 07:17:29;;;;;;;8.90;6.20;;;;;;;;;;4988277;28;20784;-53
2022/04/10 07:19:56;;;;;;;7.97;5.90;;;;;;;;;;4992190;28;20250;-53
2022/04/10 07:25:17;;;;;;;9.63;5.80;;;;;;;;;;4986709;28;20219;-52
2022/04/10 07:27:43;;;;;;;9.13;5.97;;;;;;;;;;4986335;28;21113;-53
2022/04/10 07:30:09;;;;;;;10.67;5.63;;;;;;;;;;4997865;28;20702;-52
2022/04/10 07:32:37;;;;;;;9.07;5.40;;;;;;;;;;4990899;28;20201;-51
2022/04/10 07:35:03;;;;;;;7.33;5.50;;;;;;;;;;4998788;28;20278;-52
2022/04/10 07:37:29;;;;;;;7.50;5.60;;;;;;;;;;4995860;28;21246;-53
2022/04/10 07:39:55;;;;;;;8.73;5.60;;;;;;;;;;5000593;28;20207;-52
2022/04/10 07:42:21;;;;;;;10.23;5.57;;;;;;;;;;4995332;28;20229;-53
2022/04/10 07:44:47;;;;;;;8.67;5.47;;;;;;;;;;4993952;28;20565;-53
2022/04/10 07:47:25;;;;;;;9.57;5.37;;;;;;;;;;4991238;28;20197;-53
2022/04/10 07:49:53;;;;;;;8.30;5.87;;;;;;;;;;5001354;28;20701;-53
2022/04/10 07:52:19;;;;;;;8.67;5.43;;;;;;;;;;4996884;28;20202;-53
2022/04/10 07:54:45;;;;;;;11.50;5.77;;;;;;;;;;5003411;28;20214;-53
2022/04/10 07:57:11;;;;;;;7.23;5.53;;;;;;;;;;4998252;28;20235;-53
2022/04/10 07:59:37;;;;;;;7.73;5.37;;;;;;;;;;5001859;28;20674;-53
2022/04/10 08:02:03;;;;;;;7.13;5.07;;;;;;;;;;5000749;28;20185;-53
2022/04/10 08:04:29;;;;;;;7.63;5.30;;;;;;;;;;4987815;28;20201;-53
2022/04/10 08:06:55;;;;;;;8.10;4.90;;;;;;;;;;5002840;28;20228;-53
2022/04/10 08:09:20;;;;;;;6.23;5.10;;;;;;;;;;4990777;28;20197;-52
2022/04/10 08:11:47;;;;;;;6.83;4.80;;;;;;;;;;4997479;28;20283;-53
2022/04/10 08:14:12;;;;;;;9.97;5.73;;;;;;;;;;5001601;28;20674;-54
2022/04/10 08:16:39;;;;;;;8.07;5.50;;;;;;;;;;5000737;28;20259;-53
2022/04/10 08:19:05;;;;;;;12.13;5.27;;;;;;;;;;4996186;28;20216;-53
2022/04/10 08:21:30;;;;;;;10.23;5.10;;;;;;;;;;4990171;28;20189;-53
2022/04/10 08:23:56;;;;;;;6.80;4.10;;;;;;;;;;4984223;28;20733;-53
2022/04/10 08:26:22;;;;;;;8.07;4.50;;;;;;;;;;4989101;28;20192;-54
2022/04/10 08:28:48;;;;;;;5.07;3.73;;;;;;;;;;4994642;28;20224;-53
2022/04/10 08:31:14;;;;;;;8.10;4.63;;;;;;;;;;4996214;28;20566;-52
2022/04/10 08:33:40;;;;;;;8.80;4.30;;;;;;;;;;5001718;28;20264;-53
2022/04/10 08:36:06;;;;;;;5.33;4.07;;;;;;;;;;4994322;28;20271;-54
2022/04/10 08:38:32;;;;;;;6.03;3.70;;;;;;;;;;4992596;28;20209;-53
2022/04/10 08:40:59;;;;;;;8.50;3.93;;;;;;;;;;4995047;28;20197;-52
2022/04/10 08:43:25;;;;;;;6.43;3.63;;;;;;;;;;4997648;28;20221;-54
2022/04/10 08:45:51;;;;;;;4.87;3.80;;;;;;;;;;4995752;28;20192;-52
2022/04/10 08:48:17;;;;;;;3.50;3.20;;;;;;;;;;4999595;28;20225;-54
2022/04/10 08:50:43;;;;;;;6.93;3.57;;;;;;;;;;4999190;28;20276;-54
2022/04/10 08:53:09;;;;;;;6.10;3.80;;;;;;;;;;4999857;28;20193;-52
2022/04/10 08:55:35;;;;;;;7.73;3.80;;;;;;;;;;4999982;28;20580;-54
2022/04/10 08:58:04;;;;;;;5.73;3.47;;;;;;;;;;4993009;28;20215;-54
2022/04/10 09:00:30;;;;;;;5.53;3.03;;;;;;;;;;4994705;28;20221;-54
2022/04/10 09:02:56;;;;;;;6.30;3.47;;;;;;;;;;5002367;28;20611;-54
2022/04/10 09:05:23;;;;;;;5.43;3.10;;;;;;;;;;5006539;28;20197;-54
2022/04/10 09:08:07;;;;;;;6.77;3.37;;;;;;;;;;4999971;28;20762;-53
2022/04/10 09:10:52;;;;;;;8.40;2.90;;;;;;;;;;5003878;28;20220;-54
2022/04/10 09:13:31;;;;;;;4.70;2.60;;;;;;;;;;5007290;28;20177;-53
2022/04/10 09:16:01;;;;;;;6.53;2.87;;;;;;;;;;5003873;28;20806;-54
2022/04/10 09:18:27;;;;;;;4.13;2.80;;;;;;;;;;5002330;28;20200;-54
2022/04/10 09:21:07;;;;;;;5.17;2.63;;;;;;;;;;5000964;28;20197;-54
2022/04/10 09:23:33;;;;;;;5.90;2.90;;;;;;;;;;5001396;28;20648;-54
2022/04/10 09:25:59;;;;;;;3.37;2.37;;;;;;;;;;5002768;28;20757;-54
2022/04/10 09:28:44;;;;;;;5.17;2.60;;;;;;;;;;5003134;28;20221;-54
2022/04/10 09:31:26;;;;;;;3.33;2.20;;;;;;;;;;4999054;28;20714;-54
2022/04/10 09:33:52;;;;;;;4.65;1.90;;;;;;;;;;4997588;28;20791;-54
2022/04/10 09:36:31;;;;;;;6.07;2.03;;;;;;;;;;5001068;28;20182;-54
2022/04/10 09:38:57;;;;;;;5.43;2.20;;;;;;;;;;4997290;28;20193;-53
2022/04/10 09:41:23;;;;;;;5.65;2.60;;;;;;;;;;5006666;28;20204;-54
2022/04/10 09:43:49;;;;;;;4.57;2.75;;;;;;;;;;5003580;28;20243;-54
2022/04/10 09:46:15;;;;;;;4.28;2.50;;;;;;;;;;5005606;28;20203;-54
2022/04/10 09:48:41;;;;;;;4.55;2.50;;;;;;;;;;5002207;28;20193;-54
2022/04/10 09:51:08;;;;;;;4.28;2.42;;;;;;;;;;5001532;28;20618;-54
2022/04/10 09:53:34;;;;;;;4.20;2.35;;;;;;;;;;5019932;28;20195;-54
2022/04/10 09:56:02;;;;;;;3.27;1.83;;;;;;;;;;5008654;28;20216;-54
2022/04/10 09:58:28;;;;;;;5.00;2.23;;;;;;;;;;5000774;28;20202;-54
2022/04/10 10:00:54;;;;;;;3.78;1.90;;;;;;;;;;5001835;28;20215;-54
2022/04/10 10:03:21;;;;;;;3.63;2.03;;;;;;;;;;5004755;28;20453;-54
2022/04/10 10:05:47;;;;;;;4.07;2.20;;;;;;;;;;5008726;28;20726;-54
2022/04/10 10:08:12;;;;;;;5.10;2.20;;;;;;;;;;5009791;28;20213;-54
2022/04/10 10:10:39;;;;;;;4.43;2.17;;;;;;;;;;5002735;28;20194;-54
2022/04/10 10:13:08;;;;;;;5.37;2.00;;;;;;;;;;5004354;28;20190;-54
2022/04/10 10:15:37;;;;;;;3.27;1.80;;;;;;;;;;5003195;28;20967;-54
2022/04/10 10:18:04;;;;;;;3.07;1.80;;;;;;;;;;5008525;28;20820;-54
2022/04/10 10:20:30;;;;;;;2.33;1.63;;;;;;;;;;5006672;28;20196;-54
2022/04/10 10:22:57;;;;;;;4.47;1.90;;;;;;;;;;5004007;28;20204;-53
2022/04/10 10:25:27;;;;;;;3.70;1.80;;;;;;;;;;5001548;28;20204;-54
2022/04/10 10:27:59;;;;;;;3.57;2.33;;;;;;;;;;5008887;28;20207;-54
2022/04/10 10:30:44;;;;;;;5.00;2.03;;;;;;;;;;5007206;28;20699;-54
2022/04/10 10:33:17;;;;;;;4.27;2.00;;;;;;;;;;5006348;28;20194;-54
2022/04/10 10:35:43;;;;;;;2.70;1.83;;;;;;;;;;5007792;28;20209;-54
2022/04/10 10:38:20;;;;;;;3.30;1.90;;;;;;;;;;5003707;28;20192;-54
2022/04/10 10:40:46;;;;;;;2.30;1.70;;;;;;;;;;5010329;28;20188;-54
2022/04/10 10:43:11;;;;;;;4.73;1.70;;;;;;;;;;5005727;28;20205;-54
2022/04/10 10:45:38;;;;;;;4.50;1.80;;;;;;;;;;5004360;28;20223;-54
2022/04/10 10:48:23;;;;;;;5.33;1.97;;;;;;;;;;5012373;28;20196;-54
2022/04/10 10:50:52;;;;;;;3.83;1.80;;;;;;;;;;4993167;28;20579;-54
2022/04/10 10:53:23;;;;;;;1.87;1.60;;;;;;;;;;4985163;28;21683;-53
2022/04/10 10:55:52;;;;;;;2.73;1.60;;;;;;;;;;4991103;28;20219;-52
2022/04/10 10:58:30;;;;;;;3.03;1.70;;;;;;;;;;4980434;28;20944;-52
2022/04/10 11:01:00;;;;;;;3.93;1.50;;;;;;;;;;4984077;28;20388;-53
2022/04/10 11:03:28;;;;;;;3.33;1.43;;;;;;;;;;5004373;28;20192;-53
2022/04/10 11:05:54;;;;;;;5.03;1.87;;;;;;;;;;5005796;28;20208;-53
2022/04/10 11:08:20;;;;;;;2.93;1.50;;;;;;;;;;4998590;28;20197;-53
2022/04/10 11:10:53;;;;;;;1.80;1.47;;;;;;;;;;5000895;28;20200;-52
2022/04/10 11:13:19;;;;;;;4.00;1.60;;;;;;;;;;5003084;28;20236;-55
2022/04/10 11:15:47;;;;;;;3.83;1.60;;;;;;;;;;5004411;28;20233;-52
2022/04/10 11:18:31;;;;;;;2.07;1.40;;;;;;;;;;5006398;28;20626;-54
2022/04/10 11:21:01;;;;;;;2.77;1.60;;;;;;;;;;4997478;28;20212;-55
2022/04/10 11:23:30;;;;;;;2.57;1.50;;;;;;;;;;4999972;28;20225;-55
2022/04/10 11:26:02;;;;;;;2.83;1.70;;;;;;;;;;4997520;28;20197;-55
2022/04/10 11:28:29;;;;;;;3.77;1.60;;;;;;;;;;4995714;28;20286;-55
2022/04/10 11:30:54;;;;;;;4.63;1.60;;;;;;;;;;5007705;28;20198;-54
2022/04/10 11:33:20;;;;;;;5.45;1.83;;;;;;;;;;5002922;28;20637;-55
2022/04/10 11:35:54;;;;;;;1.63;1.50;;;;;;;;;;4993786;28;20726;-55
2022/04/10 11:38:20;;;;;;;2.72;2.20;;;;;;;;;;4989554;28;20218;-59
2022/04/10 11:40:47;;;;;;;5.40;2.13;;;;;;;;;;5004871;28;20276;-57
2022/04/10 11:43:15;;;;;;;2.83;2.20;;;;;;;;;;5002795;28;20616;-57
2022/04/10 11:45:41;;;;;;;5.50;2.25;;;;;;;;;;4993050;28;20189;-52
2022/04/10 11:48:08;;;;;;;4.38;1.83;;;;;;;;;;5003498;28;20205;-55
2022/04/10 11:50:34;;;;;;;3.97;1.90;;;;;;;;;;5007159;28;20193;-54
2022/04/10 11:53:01;;;;;;;4.82;2.00;;;;;;;;;;5008459;28;20198;-55
2022/04/10 11:55:30;;;;;;;5.43;1.90;;;;;;;;;;5006427;28;20201;-55
2022/04/10 11:57:57;;;;;;;5.20;2.38;;;;;;;;;;5003294;28;20192;-57
2022/04/10 12:00:22;;;;;;;3.22;1.73;;;;;;;;;;5001839;28;20189;-57
2022/04/10 12:02:53;;;;;;;3.33;1.50;;;;;;;;;;5005558;28;20689;-58
2022/04/10 12:05:20;;;;;;;5.18;1.60;;;;;;;;;;5010034;28;20251;-58
2022/04/10 12:07:46;;;;;;;4.00;1.65;;;;;;;;;;5012159;28;20223;-58
2022/04/10 12:10:17;;;;;;;4.18;1.70;;;;;;;;;;5006168;28;20563;-59
2022/04/10 12:12:43;;;;;;;2.97;1.80;;;;;;;;;;5008862;28;20713;-58
2022/04/10 12:15:16;;;;;;;3.75;1.88;;;;;;;;;;5001605;28;20213;-58
2022/04/10 12:17:42;;;;;;;2.65;1.80;;;;;;;;;;5005218;28;20193;-56
2022/04/10 12:20:08;;;;;;;3.08;1.85;;;;;;;;;;5006929;28;20819;-57
2022/04/10 12:22:34;;;;;;;2.13;1.50;;;;;;;;;;5008702;28;20745;-57
2022/04/10 12:25:00;;;;;;;2.47;1.70;;;;;;;;;;5011021;28;20312;-57
2022/04/10 12:27:26;;;;;;;2.92;1.73;;;;;;;;;;5010333;28;20238;-58
2022/04/10 12:29:52;;;;;;;3.72;1.80;;;;;;;;;;4995974;28;20320;-54
2022/04/10 12:32:18;;;;;;;3.53;1.95;;;;;;;;;;5002853;28;20359;-54
2022/04/10 12:34:44;;;;;;;2.67;1.60;;;;;;;;;;4997464;28;20375;-53
2022/04/10 12:37:11;;;;;;;2.95;1.60;;;;;;;;;;4995169;28;20181;-54
2022/04/10 12:39:37;;;;;;;3.75;2.08;;;;;;;;;;4998783;28;20593;-53
2022/04/10 12:42:14;;;;;;;4.20;2.10;;;;;;;;;;4996641;28;20237;-53
2022/04/10 12:44:40;;;;;;;4.10;1.75;;;;;;;;;;4995185;28;20856;-53
2022/04/10 12:47:06;;;;;;;4.25;2.00;;;;;;;;;;5003119;28;20201;-54
2022/04/10 12:49:32;;;;;;;4.65;1.75;;;;;;;;;;5000637;28;21203;-53
2022/04/10 12:52:05;;;;;;;2.50;1.60;;;;;;;;;;4990732;28;20193;-53
2022/04/10 12:54:34;;;;;;;3.58;1.95;;;;;;;;;;4992868;28;20217;-53
2022/04/10 12:57:00;;;;;;;3.55;1.90;;;;;;;;;;4991266;28;20196;-53
2022/04/10 12:59:36;;;;;;;5.20;2.17;;;;;;;;;;4990438;28;20256;-53
2022/04/10 13:02:02;;;;;;;5.85;2.33;;;;;;;;;;4992007;28;20414;-53
2022/04/10 13:04:29;;;;;;;5.35;2.38;;;;;;;;;;4991919;28;20281;-53
2022/04/10 13:06:55;;;;;;;4.78;2.40;;;;;;;;;;4991845;28;20220;-58
2022/04/10 13:09:21;;;;;;;5.15;2.63;;;;;;;;;;4998680;28;20204;-53
2022/04/10 13:11:47;;;;;;;5.90;2.72;;;;;;;;;;5002743;28;20200;-52
2022/04/10 13:14:15;;;;;;;5.07;1.95;;;;;;;;;;4998199;28;20232;-53
2022/04/10 13:16:41;;;;;;;7.25;2.58;;;;;;;;;;4989542;28;20185;-53
2022/04/10 13:19:08;;;;;;;5.20;1.98;;;;;;;;;;4997604;28;20193;-53
2022/04/10 13:21:34;;;;;;;3.60;2.40;;;;;;;;;;5004442;28;20301;-53
2022/04/10 13:24:01;;;;;;;3.42;2.30;;;;;;;;;;5004340;28;20215;-53
2022/04/10 13:26:30;;;;;;;4.05;2.05;;;;;;;;;;4999897;28;20236;-53
2022/04/10 13:28:57;;;;;;;4.35;2.22;;;;;;;;;;5004497;28;20241;-53
2022/04/10 13:31:22;;;;;;;4.50;2.47;;;;;;;;;;5000285;28;20189;-53
2022/04/10 13:33:48;;;;;;;3.28;2.30;;;;;;;;;;5002712;28;20200;-53
2022/04/10 13:36:14;;;;;;;4.60;2.50;;;;;;;;;;5005399;28;20225;-53
2022/04/10 13:38:40;;;;;;;6.07;2.60;;;;;;;;;;5005139;28;20185;-53
2022/04/10 13:41:06;;;;;;;3.58;2.40;;;;;;;;;;4997658;28;20555;-53
2022/04/10 13:43:32;;;;;;;3.28;2.30;;;;;;;;;;5002970;28;20193;-53
2022/04/10 13:45:58;;;;;;;7.15;2.55;;;;;;;;;;5001458;28;20713;-53
2022/04/10 13:48:24;;;;;;;3.47;2.10;;;;;;;;;;5001876;28;20678;-53
2022/04/10 13:50:51;;;;;;;3.85;2.17;;;;;;;;;;5004697;28;20221;-53
2022/04/10 13:53:17;;;;;;;3.65;2.40;;;;;;;;;;5005488;28;20201;-58
2022/04/10 13:55:43;;;;;;;5.03;2.45;;;;;;;;;;5003047;28;20674;-54
2022/04/10 13:58:09;;;;;;;3.88;2.33;;;;;;;;;;4992483;28;20189;-53
2022/04/10 14:00:35;;;;;;;2.67;2.10;;;;;;;;;;5001068;28;20264;-54
2022/04/10 14:03:01;;;;;;;4.35;2.30;;;;;;;;;;5002086;28;20193;-54
2022/04/10 14:05:27;;;;;;;2.88;2.20;;;;;;;;;;5005405;28;20281;-54
2022/04/10 14:07:53;;;;;;;4.90;2.35;;;;;;;;;;5000681;28;20227;-53
2022/04/10 14:10:19;;;;;;;4.45;2.40;;;;;;;;;;5004905;28;20185;-53
2022/04/10 14:12:45;;;;;;;4.75;2.45;;;;;;;;;;5002707;28;20201;-53
2022/04/10 14:15:11;;;;;;;3.97;2.30;;;;;;;;;;5000625;28;20214;-53
2022/04/10 14:17:37;;;;;;;8.40;2.35;;;;;;;;;;5001663;28;20193;-53
2022/04/10 14:20:03;;;;;;;4.40;2.28;;;;;;;;;;5005793;28;20187;-53
2022/04/10 14:22:29;;;;;;;3.53;2.40;;;;;;;;;;5003186;28;20197;-53
2022/04/10 14:24:55;;;;;;;3.50;2.10;;;;;;;;;;4989567;28;20204;-54
2022/04/10 14:27:21;;;;;;;4.45;2.00;;;;;;;;;;4995686;28;20602;-53
2022/04/10 14:29:47;;;;;;;3.38;2.30;;;;;;;;;;5002538;28;20676;-53
2022/04/10 14:32:13;;;;;;;5.03;2.60;;;;;;;;;;4999483;28;20193;-52
2022/04/10 14:34:39;;;;;;;3.85;2.20;;;;;;;;;;4995990;28;20213;-53
2022/04/10 14:37:05;;;;;;;4.55;2.60;;;;;;;;;;4996934;28;20315;-53
2022/04/10 14:39:31;;;;;;;3.20;2.08;;;;;;;;;;4984753;28;20193;-53
2022/04/10 14:41:58;;;;;;;2.55;2.00;;;;;;;;;;4984346;28;20204;-52
2022/04/10 14:44:25;;;;;;;5.05;1.95;;;;;;;;;;4996034;28;20842;-53